GTI2032 KJFK-EGLL
Flight info
| Callsign | GTI2032 |
|---|---|
| Flight time | N/A |
| Altitude | 33000 |
| Route | MERIT DCT HFD DCT PUT DCT TUSKY DCT ALLRY/M086F340 DCT 51N050W 53N040W 54N030W 54N020W DCT MALOT DCT GISTI/N0493F350 DCT KORAK DCT LIFFY UL975 MALUD Q38 NUGRA |
| Aircraft | B748/H-SDE3FGHIM1M2RWXY/LB1 |
Departure
| Time | 2026-05-09 10:35 |
|---|---|
| Airport | John F. Kennedy International Airport (KJFK) |
Arrival
| Time | N/A |
|---|---|
| Airport | London Heathrow Airport (EGLL) |
| Time | Latitude | Longitude | Altitude | Speed | Heading |
|---|---|---|---|---|---|
| 2026-05-09 10:18 | 40.66130 | -73.78537 | 31 ft | 0 kts | 32° |
| 2026-05-09 10:19 | 40.66122 | -73.78544 | 30 ft | 2 kts | 32° |
| 2026-05-09 10:19 | 40.66108 | -73.78555 | 30 ft | 2 kts | 32° |
| 2026-05-09 10:19 | 40.66094 | -73.78566 | 30 ft | 2 kts | 32° |
| 2026-05-09 10:20 | 40.66080 | -73.78578 | 28 ft | 2 kts | 32° |
| 2026-05-09 10:20 | 40.66066 | -73.78589 | 31 ft | 2 kts | 32° |
| 2026-05-09 10:20 | 40.66053 | -73.78600 | 28 ft | 2 kts | 32° |
| 2026-05-09 10:20 | 40.66049 | -73.78604 | 28 ft | 0 kts | 32° |
| 2026-05-09 10:21 | 40.66040 | -73.78610 | 29 ft | 2 kts | 35° |
| 2026-05-09 10:21 | 40.66027 | -73.78623 | 30 ft | 2 kts | 39° |
| 2026-05-09 10:21 | 40.66015 | -73.78636 | 28 ft | 2 kts | 36° |
| 2026-05-09 10:22 | 40.66010 | -73.78641 | 29 ft | 0 kts | 34° |
| 2026-05-09 10:25 | 40.66014 | -73.78626 | 31 ft | 1 kts | 78° |
| 2026-05-09 10:26 | 40.66012 | -73.78618 | 31 ft | 1 kts | 101° |
| 2026-05-09 10:26 | 40.65997 | -73.78606 | 30 ft | 5 kts | 164° |
| 2026-05-09 10:26 | 40.65919 | -73.78647 | 31 ft | 19 kts | 207° |
| 2026-05-09 10:26 | 40.65799 | -73.78709 | 30 ft | 10 kts | 177° |
| 2026-05-09 10:27 | 40.65764 | -73.78687 | 30 ft | 5 kts | 138° |
| 2026-05-09 10:27 | 40.65696 | -73.78558 | 30 ft | 27 kts | 121° |
| 2026-05-09 10:27 | 40.65600 | -73.78351 | 30 ft | 26 kts | 121° |
| 2026-05-09 10:27 | 40.65512 | -73.78156 | 30 ft | 25 kts | 121° |
| 2026-05-09 10:28 | 40.65424 | -73.77961 | 30 ft | 24 kts | 121° |
| 2026-05-09 10:28 | 40.65367 | -73.77837 | 30 ft | 23 kts | 121° |
| 2026-05-09 10:28 | 40.65289 | -73.77663 | 30 ft | 22 kts | 121° |
| 2026-05-09 10:28 | 40.65199 | -73.77466 | 30 ft | 28 kts | 121° |
| 2026-05-09 10:29 | 40.65101 | -73.77254 | 30 ft | 27 kts | 121° |
| 2026-05-09 10:29 | 40.64972 | -73.76969 | 31 ft | 27 kts | 120° |
| 2026-05-09 10:29 | 40.64911 | -73.76831 | 31 ft | 0 kts | 120° |
| 2026-05-09 10:30 | 40.64899 | -73.76805 | 30 ft | 15 kts | 120° |
| 2026-05-09 10:30 | 40.64896 | -73.76709 | 31 ft | 4 kts | 57° |
| 2026-05-09 10:31 | 40.64951 | -73.76647 | 31 ft | 24 kts | 35° |
| 2026-05-09 10:31 | 40.65051 | -73.76566 | 31 ft | 11 kts | 31° |
| 2026-05-09 10:31 | 40.65098 | -73.76517 | 31 ft | 5 kts | 60° |
| 2026-05-09 10:31 | 40.65097 | -73.76473 | 31 ft | 0 kts | 110° |
| 2026-05-09 10:32 | 40.65087 | -73.76441 | 32 ft | 19 kts | 116° |
| 2026-05-09 10:33 | 40.65027 | -73.76378 | 32 ft | 4 kts | 181° |
| 2026-05-09 10:33 | 40.64935 | -73.76423 | 32 ft | 9 kts | 208° |
| 2026-05-09 10:33 | 40.64922 | -73.76432 | 31 ft | 0 kts | 208° |
| 2026-05-09 10:34 | 40.64894 | -73.76453 | 31 ft | 25 kts | 210° |
| 2026-05-09 10:34 | 40.63714 | -73.77380 | 30 ft | 166 kts | 210° |
| 2026-05-09 10:34 | 40.62567 | -73.78275 | 154 ft | 212 kts | 211° |
| 2026-05-09 10:35 | 40.61227 | -73.79315 | 672 ft | 236 kts | 208° |
| 2026-05-09 10:35 | 40.59762 | -73.80336 | 1661 ft | 233 kts | 209° |
| 2026-05-09 10:35 | 40.58285 | -73.81285 | 2415 ft | 239 kts | 208° |
| 2026-05-09 10:35 | 40.56764 | -73.82192 | 3241 ft | 242 kts | 208° |
| 2026-05-09 10:36 | 40.55214 | -73.83077 | 4044 ft | 244 kts | 207° |
| 2026-05-09 10:36 | 40.53641 | -73.83953 | 4871 ft | 245 kts | 207° |
| 2026-05-09 10:36 | 40.52063 | -73.84824 | 5623 ft | 247 kts | 207° |
| 2026-05-09 10:36 | 40.50484 | -73.85711 | 6369 ft | 248 kts | 207° |
| 2026-05-09 10:37 | 40.48892 | -73.86624 | 7053 ft | 250 kts | 206° |
| 2026-05-09 10:37 | 40.47236 | -73.87388 | 7720 ft | 256 kts | 195° |
| 2026-05-09 10:37 | 40.45456 | -73.87697 | 8350 ft | 261 kts | 189° |
| 2026-05-09 10:37 | 40.43626 | -73.87833 | 8963 ft | 265 kts | 188° |
| 2026-05-09 10:38 | 40.41769 | -73.87923 | 9540 ft | 269 kts | 187° |
| 2026-05-09 10:38 | 40.39856 | -73.87807 | 9816 ft | 283 kts | 172° |
| 2026-05-09 10:38 | 40.38012 | -73.86850 | 9817 ft | 289 kts | 154° |
| 2026-05-09 10:38 | 40.36405 | -73.85221 | 9818 ft | 298 kts | 136° |
| 2026-05-09 10:39 | 40.35268 | -73.82917 | 9808 ft | 306 kts | 115° |
| 2026-05-09 10:39 | 40.34796 | -73.80221 | 10173 ft | 297 kts | 96° |
| 2026-05-09 10:39 | 40.34829 | -73.77507 | 10587 ft | 307 kts | 79° |
| 2026-05-09 10:39 | 40.35527 | -73.74790 | 10693 ft | 325 kts | 59° |
| 2026-05-09 10:40 | 40.36828 | -73.72272 | 10805 ft | 342 kts | 46° |
| 2026-05-09 10:40 | 40.38698 | -73.70277 | 10965 ft | 353 kts | 22° |
| 2026-05-09 10:40 | 40.41038 | -73.69159 | 11134 ft | 366 kts | 9° |
| 2026-05-09 10:40 | 40.43545 | -73.68370 | 11257 ft | 386 kts | 9° |
| 2026-05-09 10:41 | 40.46207 | -73.67391 | 11453 ft | 408 kts | 15° |
| 2026-05-09 10:41 | 40.48867 | -73.65924 | 11969 ft | 420 kts | 21° |
| 2026-05-09 10:41 | 40.51515 | -73.64204 | 12648 ft | 427 kts | 23° |
| 2026-05-09 10:41 | 40.54194 | -73.62498 | 13388 ft | 429 kts | 19° |
| 2026-05-09 10:42 | 40.56957 | -73.60977 | 14083 ft | 432 kts | 17° |
| 2026-05-09 10:42 | 40.59745 | -73.59475 | 14700 ft | 437 kts | 18° |
| 2026-05-09 10:42 | 40.62545 | -73.57850 | 15304 ft | 442 kts | 19° |
| 2026-05-09 10:42 | 40.65363 | -73.56172 | 15902 ft | 447 kts | 19° |
| 2026-05-09 10:43 | 40.68224 | -73.54521 | 16475 ft | 451 kts | 18° |
| 2026-05-09 10:43 | 40.71118 | -73.52883 | 17046 ft | 455 kts | 17° |
| 2026-05-09 10:43 | 40.74033 | -73.51207 | 17610 ft | 461 kts | 18° |
| 2026-05-09 10:43 | 40.76975 | -73.49493 | 18170 ft | 465 kts | 18° |
| 2026-05-09 10:44 | 40.79960 | -73.47759 | 18690 ft | 470 kts | 17° |
| 2026-05-09 10:44 | 40.82969 | -73.46025 | 19187 ft | 474 kts | 17° |
| 2026-05-09 10:44 | 40.85961 | -73.44296 | 19681 ft | 477 kts | 17° |
| 2026-05-09 10:44 | 40.89014 | -73.42523 | 20177 ft | 480 kts | 17° |
| 2026-05-09 10:45 | 40.92006 | -73.40781 | 20648 ft | 483 kts | 17° |
| 2026-05-09 10:46 | 41.04491 | -73.33517 | 22563 ft | 495 kts | 16° |
| 2026-05-09 10:46 | 41.07650 | -73.31673 | 23011 ft | 498 kts | 16° |
| 2026-05-09 10:46 | 41.10835 | -73.29813 | 23443 ft | 501 kts | 16° |
| 2026-05-09 10:46 | 41.14024 | -73.27948 | 23829 ft | 504 kts | 16° |
| 2026-05-09 10:47 | 41.17244 | -73.26062 | 24186 ft | 506 kts | 16° |
| 2026-05-09 10:47 | 41.20472 | -73.24170 | 24555 ft | 508 kts | 16° |
| 2026-05-09 10:47 | 41.23714 | -73.22268 | 24888 ft | 511 kts | 16° |
| 2026-05-09 10:47 | 41.26974 | -73.20353 | 25225 ft | 513 kts | 16° |
| 2026-05-09 10:48 | 41.30244 | -73.18430 | 25558 ft | 515 kts | 16° |
| 2026-05-09 10:48 | 41.33526 | -73.16498 | 25908 ft | 517 kts | 16° |
| 2026-05-09 10:48 | 41.36812 | -73.14524 | 26271 ft | 522 kts | 19° |
| 2026-05-09 10:48 | 41.39930 | -73.11902 | 26592 ft | 538 kts | 31° |
| 2026-05-09 10:49 | 41.42703 | -73.08479 | 26904 ft | 551 kts | 43° |
| 2026-05-09 10:49 | 41.45021 | -73.04361 | 27232 ft | 562 kts | 54° |
| 2026-05-09 10:49 | 41.46813 | -72.99683 | 27551 ft | 570 kts | 63° |
| 2026-05-09 10:49 | 41.48240 | -72.94741 | 27850 ft | 575 kts | 67° |
| 2026-05-09 10:50 | 41.49573 | -72.89697 | 28162 ft | 577 kts | 67° |
| 2026-05-09 10:50 | 41.50984 | -72.84696 | 28570 ft | 575 kts | 64° |
| 2026-05-09 10:50 | 41.52689 | -72.79891 | 29022 ft | 569 kts | 56° |
| 2026-05-09 10:50 | 41.54716 | -72.75387 | 29457 ft | 565 kts | 51° |
| 2026-05-09 10:51 | 41.56895 | -72.71033 | 29918 ft | 563 kts | 50° |
| 2026-05-09 10:51 | 41.59066 | -72.66671 | 30315 ft | 565 kts | 53° |
| 2026-05-09 10:51 | 41.61033 | -72.62124 | 30702 ft | 567 kts | 56° |
| 2026-05-09 10:51 | 41.62886 | -72.57460 | 31062 ft | 567 kts | 56° |
| 2026-05-09 10:52 | 41.64822 | -72.52891 | 31425 ft | 563 kts | 52° |
| 2026-05-09 10:52 | 41.66912 | -72.48480 | 31826 ft | 560 kts | 50° |
| 2026-05-09 10:52 | 41.68980 | -72.44129 | 32178 ft | 560 kts | 52° |
| 2026-05-09 10:52 | 41.70967 | -72.39623 | 32532 ft | 561 kts | 53° |
| 2026-05-09 10:53 | 41.72919 | -72.35106 | 32846 ft | 559 kts | 52° |
| 2026-05-09 10:53 | 41.74903 | -72.30711 | 33029 ft | 559 kts | 51° |
| 2026-05-09 10:53 | 41.76950 | -72.26266 | 33028 ft | 559 kts | 52° |
| 2026-05-09 10:54 | 41.80927 | -72.17307 | 33038 ft | 560 kts | 53° |
| 2026-05-09 10:54 | 41.84928 | -72.08357 | 33034 ft | 558 kts | 52° |
| 2026-05-09 10:55 | 41.88908 | -71.99409 | 33025 ft | 559 kts | 52° |
| 2026-05-09 10:55 | 41.92877 | -71.90444 | 32998 ft | 559 kts | 52° |
| 2026-05-09 10:56 | 41.97072 | -71.81722 | 33116 ft | 549 kts | 44° |
| 2026-05-09 10:56 | 42.01903 | -71.73845 | 33042 ft | 544 kts | 42° |
| 2026-05-09 10:57 | 42.06611 | -71.65845 | 33050 ft | 546 kts | 44° |
| 2026-05-09 10:57 | 42.11360 | -71.57889 | 33349 ft | 544 kts | 43° |
| 2026-05-09 10:57 | 42.13729 | -71.53924 | 33730 ft | 543 kts | 43° |
| 2026-05-09 10:58 | 42.16070 | -71.49933 | 34082 ft | 541 kts | 43° |
| 2026-05-09 10:58 | 42.18399 | -71.45969 | 34348 ft | 540 kts | 43° |
| 2026-05-09 10:58 | 42.20726 | -71.42049 | 34599 ft | 539 kts | 43° |
| 2026-05-09 10:58 | 42.23069 | -71.38098 | 34849 ft | 538 kts | 43° |
| 2026-05-09 10:59 | 42.25397 | -71.34141 | 35078 ft | 538 kts | 44° |
| 2026-05-09 10:59 | 42.27721 | -71.30175 | 35302 ft | 538 kts | 44° |
| 2026-05-09 10:59 | 42.30049 | -71.26215 | 35547 ft | 539 kts | 44° |
| 2026-05-09 10:59 | 42.32381 | -71.22252 | 35720 ft | 539 kts | 44° |
| 2026-05-09 11:00 | 42.34713 | -71.18272 | 35919 ft | 540 kts | 44° |
| 2026-05-09 11:00 | 42.37044 | -71.14284 | 36086 ft | 541 kts | 44° |
| 2026-05-09 11:00 | 42.39376 | -71.10293 | 36264 ft | 541 kts | 44° |
| 2026-05-09 11:00 | 42.41713 | -71.06292 | 36426 ft | 542 kts | 44° |
| 2026-05-09 11:01 | 42.44049 | -71.02286 | 36632 ft | 543 kts | 45° |
| 2026-05-09 11:01 | 42.46386 | -70.98268 | 36785 ft | 544 kts | 45° |
| 2026-05-09 11:01 | 42.48726 | -70.94241 | 36929 ft | 545 kts | 45° |
| 2026-05-09 11:01 | 42.51077 | -70.90194 | 37082 ft | 547 kts | 45° |
| 2026-05-09 11:02 | 42.53429 | -70.86138 | 37069 ft | 546 kts | 45° |
| 2026-05-09 11:02 | 42.58081 | -70.78092 | 37071 ft | 545 kts | 45° |
| 2026-05-09 11:03 | 42.62796 | -70.69925 | 37051 ft | 546 kts | 45° |
| 2026-05-09 11:03 | 42.67437 | -70.61857 | 37041 ft | 546 kts | 46° |
| 2026-05-09 11:04 | 42.72106 | -70.53722 | 37033 ft | 546 kts | 46° |
| 2026-05-09 11:04 | 42.76773 | -70.45566 | 37048 ft | 546 kts | 46° |
| 2026-05-09 11:05 | 42.81433 | -70.37402 | 37055 ft | 546 kts | 46° |
| 2026-05-09 11:05 | 42.86087 | -70.29225 | 37055 ft | 546 kts | 46° |
| 2026-05-09 11:06 | 42.90731 | -70.21041 | 37047 ft | 545 kts | 47° |
| 2026-05-09 11:06 | 42.95365 | -70.12855 | 37048 ft | 545 kts | 47° |
| 2026-05-09 11:07 | 43.00003 | -70.04638 | 37059 ft | 545 kts | 47° |
| 2026-05-09 11:07 | 43.04626 | -69.96426 | 37057 ft | 546 kts | 47° |
| 2026-05-09 11:08 | 43.09248 | -69.88191 | 37059 ft | 546 kts | 47° |
| 2026-05-09 11:08 | 43.13862 | -69.79947 | 37063 ft | 545 kts | 47° |
| 2026-05-09 11:09 | 43.17692 | -69.73090 | 37076 ft | 545 kts | 47° |
| 2026-05-09 11:09 | 43.18474 | -69.71687 | 37053 ft | 545 kts | 47° |